Cameron, Arizona
Current Conditions -  °F | °C
As of 11:54 AM on Thursday 23 Oct 2014 (Local Time) from KGCN Reporting Station
Smoke Smoke  
Wind Chill: 67°   Ceiling: Unl
Heat Index: 67°   Visibility: 10mi
Dew Point: 34°   Wind: 6mph
Humidity: 30%   Direction: 220°SW
Pressure: 30.35"   Gusts: NA
Location:  35.88°N, 111.41°W
Report Text: KGCN 231754Z 22005KT 10SM FU CLR 19/01 A3035 RMK AO2 SLP223 T01940011 10194 21022 51008
Loading
Personal Weather Stations






























Interactive Weather Map
Tropical Storm Tracking
New forecast layout! Learn more

10-Day Weather Forecast

Advertisements
Track Severe Weather on mobile